Pacific Pathfinder — PATH — position and weather

sailwx.info

Track history (hours):
 
Tides and Currents Weather Stations Pressure Air Temp Water Temp Dewpoint Dewpoint Depression Visibility Wind Speed Wind Dir Waves Ship Positions

Pacific Pathfinder

Last reported at 2014-Jul-23 07:31 UTC. Time now 2014-Jul-23 07:52 UTC.
Position N 54°17' W 130°22'.

Length 15 m; draft 1.3 m.

Type: Pilot. MMSI: 316003484.

Date/timePositionNaut miles runAvg speedWind from/ knotsBaromVisibWave heightAir tempDewpointWater temp
2014-Jul-23 07:31N 54°17' W 130°22'1 1.2
2014-Jul-23 06:33N 54°18' W 130°21'0 0.0
2014-Jul-23 05:33N 54°18' W 130°21'1 0.3
2014-Jul-23 02:33N 54°17' W 130°22'1 0.2
2014-Jul-22 22:33N 54°18' W 130°21'0 0.0
2014-Jul-22 21:33N 54°18' W 130°21'0 0.0
2014-Jul-22 20:33N 54°18' W 130°21'0 0.0
2014-Jul-22 19:33N 54°18' W 130°21'0 0.0
2014-Jul-22 18:33N 54°18' W 130°21'0 0.0
2014-Jul-22 17:33N 54°18' W 130°21'2 2.0
2014-Jul-22 16:33N 54°19' W 130°19'2 2.0
2014-Jul-22 15:33N 54°18' W 130°21'1 0.2
2014-Jul-22 10:32N 54°17' W 130°22'1 1.1
2014-Jul-22 09:33N 54°18' W 130°21'0 0.0
2014-Jul-22 08:33N 54°18' W 130°21'3 2.9
2014-Jul-22 07:33N 54°20' W 130°25'3 1.0
2014-Jul-22 04:33N 54°18' W 130°21'0 0.0
2014-Jul-22 03:33N 54°18' W 130°21'0 0.0
2014-Jul-22 02:33N 54°18' W 130°21'0 0.0
2014-Jul-22 01:33N 54°18' W 130°21'0 0.0
2014-Jul-22 00:33N 54°18' W 130°21'1 0.2
2014-Jul-21 20:16N 54°17' W 130°22'1 1.3
2014-Jul-21 19:33N 54°18' W 130°21'0 0.0
2014-Jul-21 18:33N 54°18' W 130°21'0 0.0
2014-Jul-21 17:33N 54°18' W 130°21'0 0.0
2014-Jul-21 16:33N 54°18' W 130°21'1 0.3
2014-Jul-21 12:25N 54°17' W 130°22'1 1.4
2014-Jul-21 11:34N 54°18' W 130°21'0 0.0
2014-Jul-21 10:33N 54°18' W 130°21'0 0.0
2014-Jul-21 09:33N 54°18' W 130°21'1 0.5
2014-Jul-21 07:26N 54°17' W 130°22'1 1.2
2014-Jul-21 06:33N 54°18' W 130°21'0 0.0
2014-Jul-21 05:33N 54°18' W 130°21'0 0.0
2014-Jul-21 04:33N 54°18' W 130°21'0 0.2
2014-Jul-21 03:33N 54°18' W 130°21'1 0.9
2014-Jul-21 02:33N 54°17' W 130°22'1 0.1
2014-Jul-20 21:34N 54°18' W 130°21'0 0.0
2014-Jul-20 20:33N 54°18' W 130°21'1 0.8
2014-Jul-20 19:06N 54°17' W 130°22'2 4.6
2014-Jul-20 18:33N 54°19' W 130°20'1 1.4
2014-Jul-20 17:33N 54°18' W 130°21'0 0.0
2014-Jul-20 14:33N 54°18' W 130°21'2 2.0
2014-Jul-20 13:33N 54°19' W 130°19'2 2.0
2014-Jul-20 12:33N 54°18' W 130°21'0 0.0
2014-Jul-20 11:33N 54°18' W 130°21'0 0.0
2014-Jul-20 10:33N 54°18' W 130°21'8 2.3
2014-Jul-20 07:11N 54°18' W 130°35'812.6
2014-Jul-20 06:33N 54°18' W 130°21'8 3.9
2014-Jul-20 04:25N 54°19' W 130°35'8 9.6
2014-Jul-20 03:33N 54°18' W 130°21'1 0.5
2014-Jul-20 01:16N 54°17' W 130°22'1 1.7
2014-Jul-20 00:33N 54°18' W 130°21'1 0.4
2014-Jul-19 21:30N 54°16' W 130°22'1 1.3
2014-Jul-19 20:33N 54°18' W 130°21'0 0.0
2014-Jul-19 19:33N 54°18' W 130°21'0 0.0
2014-Jul-19 18:33N 54°18' W 130°21'0 0.0
2014-Jul-19 17:33N 54°18' W 130°21'2 1.8
2014-Jul-19 16:27N 54°19' W 130°19'2 2.3
2014-Jul-19 15:34N 54°18' W 130°21'1 0.3
2014-Jul-19 12:17N 54°17' W 130°22'1 1.3
2014-Jul-19 11:33N 54°18' W 130°21'0 0.0
2014-Jul-19 10:33N 54°18' W 130°21'7 3.1
2014-Jul-19 08:17N 54°18' W 130°33'3 1.5
2014-Jul-19 06:06N 54°15' W 130°35'814.8
2014-Jul-19 05:33N 54°18' W 130°21'0 0.0
2014-Jul-19 04:33N 54°18' W 130°21'1 0.5
2014-Jul-19 02:06N 54°16' W 130°22'1 2.3
2014-Jul-19 01:33N 54°18' W 130°21'0 0.0
2014-Jul-19 00:33N 54°18' W 130°21'0 0.0
2014-Jul-18 23:33N 54°18' W 130°21'0 0.0
2014-Jul-18 22:33N 54°18' W 130°21'0 0.0
2014-Jul-18 21:33N 54°18' W 130°21'0 0.0
2014-Jul-18 20:33N 54°18' W 130°21'0 0.0
2014-Jul-18 19:33N 54°18' W 130°21'0 0.0
2014-Jul-18 18:33N 54°18' W 130°21'0 0.0
2014-Jul-18 17:33N 54°18' W 130°21'2 2.0
2014-Jul-18 16:33N 54°19' W 130°19'0 0.0
2014-Jul-18 15:33N 54°19' W 130°19'0 0.0
2014-Jul-18 14:33N 54°19' W 130°19'0 0.0
2014-Jul-18 13:33N 54°19' W 130°19'2 2.0
2014-Jul-18 12:33N 54°18' W 130°21'0 0.0
2014-Jul-18 11:33N 54°18' W 130°21'0 0.0
2014-Jul-18 10:33N 54°18' W 130°21'0 0.0
2014-Jul-18 09:33N 54°18' W 130°21'0 0.0
2014-Jul-18 08:33N 54°18' W 130°21'0 0.0
2014-Jul-18 07:33N 54°18' W 130°21'0 0.0
2014-Jul-18 06:33N 54°18' W 130°21'0 0.0
2014-Jul-18 05:33N 54°18' W 130°21'0 0.0
2014-Jul-18 04:33N 54°18' W 130°21'0 0.0
2014-Jul-18 03:33N 54°18' W 130°21'0 0.0
2014-Jul-18 02:33N 54°18' W 130°21'0 0.0
2014-Jul-17 23:33N 54°18' W 130°21'0 0.0
2014-Jul-17 22:33N 54°18' W 130°21'0 0.0
2014-Jul-17 21:33N 54°18' W 130°21'0 0.0
2014-Jul-17 20:33N 54°18' W 130°21'0 0.0
2014-Jul-17 19:33N 54°18' W 130°21'0 0.0
2014-Jul-17 18:33N 54°18' W 130°21'1 0.2
2014-Jul-17 15:33N 54°17' W 130°22'1 0.7
2014-Jul-17 14:33N 54°18' W 130°21'0 0.0
2014-Jul-17 13:34N 54°18' W 130°21'0 0.0
2014-Jul-17 12:34N 54°18' W 130°21'0 0.0
2014-Jul-17 11:33N 54°18' W 130°21'0 0.0
2014-Jul-17 10:33N 54°18' W 130°21'0 0.0
2014-Jul-17 04:33N 54°18' W 130°21'0 0.0
2014-Jul-17 03:33N 54°18' W 130°21'0 0.0
2014-Jul-17 02:33N 54°18' W 130°21'0 0.0
2014-Jul-17 01:33N 54°18' W 130°21'0 0.0
2014-Jul-17 00:33N 54°18' W 130°21'2 1.4
2014-Jul-16 23:04N 54°19' W 130°19'2 3.9
2014-Jul-16 22:33N 54°18' W 130°21'0 0.0
2014-Jul-16 21:33N 54°18' W 130°21'0 0.0
2014-Jul-16 20:33N 54°18' W 130°21'0 0.0
2014-Jul-16 19:33N 54°18' W 130°21'0 0.0
2014-Jul-16 18:33N 54°18' W 130°21'0 0.0
2014-Jul-16 17:33N 54°18' W 130°21'0 0.0
2014-Jul-16 16:33N 54°18' W 130°21'0 0.0
2014-Jul-16 15:33N 54°18' W 130°21'0 0.0
2014-Jul-16 14:33N 54°18' W 130°21'0 0.0
2014-Jul-16 13:33N 54°18' W 130°21'0 0.0
2014-Jul-16 12:33N 54°18' W 130°21'0 0.0
2014-Jul-16 11:33N 54°18' W 130°21'0 0.0
2014-Jul-16 10:33N 54°18' W 130°21'0 0.0
2014-Jul-16 09:33N 54°18' W 130°21'0 0.0
2014-Jul-16 08:33N 54°18' W 130°21'0 0.0
2014-Jul-16 07:33N 54°18' W 130°21'0 0.0
2014-Jul-16 06:33N 54°18' W 130°21'0 0.0
2014-Jul-16 05:33N 54°18' W 130°21'0 0.0
2014-Jul-16 04:33N 54°18' W 130°21'0 0.0
2014-Jul-16 03:33N 54°18' W 130°21'0 0.0
2014-Jul-16 02:33N 54°18' W 130°21'0 0.0
2014-Jul-16 01:33N 54°18' W 130°21'0 0.0
2014-Jul-16 00:33N 54°18' W 130°21'0 0.0
2014-Jul-15 23:33N 54°18' W 130°21'0 0.0
2014-Jul-15 22:33N 54°18' W 130°21'0 0.0
2014-Jul-15 21:33N 54°18' W 130°21'0 0.0
2014-Jul-15 20:33N 54°18' W 130°21'0 0.0
2014-Jul-15 19:33N 54°18' W 130°21'0 0.0
2014-Jul-15 18:33N 54°18' W 130°21'0 0.0
2014-Jul-15 17:33N 54°18' W 130°21'0 0.0
2014-Jul-15 16:33N 54°18' W 130°21'0 0.0
2014-Jul-15 15:33N 54°18' W 130°21'0 0.0
2014-Jul-15 14:33N 54°18' W 130°21'0 0.0
2014-Jul-15 13:33N 54°18' W 130°21'1 0.1
2014-Jul-15 08:05N 54°17' W 130°22'0 0.1
2014-Jul-15 05:06N 54°17' W 130°22'1 1.3
2014-Jul-15 04:33N 54°18' W 130°21'0 0.0
2014-Jul-15 03:34N 54°18' W 130°21'1 0.7
2014-Jul-15 02:17N 54°17' W 130°22'1 1.2
2014-Jul-15 01:33N 54°18' W 130°21'0 0.0
2014-Jul-15 00:33N 54°18' W 130°21'0 0.0
2014-Jul-14 23:33N 54°18' W 130°21'0 0.0
2014-Jul-14 22:33N 54°18' W 130°21'1 0.1
2014-Jul-14 15:12N 54°17' W 130°22'1 1.1
2014-Jul-14 14:33N 54°18' W 130°21'2 1.8
2014-Jul-14 13:27N 54°19' W 130°19'2 0.7
2014-Jul-14 10:33N 54°18' W 130°21'0 0.0
2014-Jul-14 09:33N 54°18' W 130°21'0 0.0
2014-Jul-14 08:33N 54°18' W 130°21'1 0.1
2014-Jul-14 04:06N 54°17' W 130°22'1 1.1
2014-Jul-14 03:33N 54°18' W 130°21'1 0.3
2014-Jul-14 00:29N 54°17' W 130°22'1 1.1
2014-Jul-13 23:33N 54°18' W 130°21'0 0.0
2014-Jul-13 22:33N 54°18' W 130°21'0 0.0
2014-Jul-13 21:33N 54°18' W 130°21'2 2.0
2014-Jul-13 20:33N 54°19' W 130°19'1 1.0
2014-Jul-13 19:33N 54°19' W 130°20'1 0.3
2014-Jul-13 15:33N 54°18' W 130°21'7 3.3
2014-Jul-13 13:22N 54°15' W 130°33'7 8.9
2014-Jul-13 12:33N 54°18' W 130°21'0 0.0
2014-Jul-13 11:34N 54°18' W 130°21'0 0.0
2014-Jul-13 10:34N 54°18' W 130°21'0 0.1
2014-Jul-13 09:33N 54°18' W 130°21'  
Track history (hours):
 
Tides and Currents Weather Stations Pressure Air Temp Water Temp Dewpoint Dewpoint Depression Visibility Wind Speed Wind Dir Waves Ship Positions

Pacific Pathfinder

Last reported at 2014-Jul-23 07:31 UTC. Time now 2014-Jul-23 07:52 UTC.
Position N 54°17' W 130°22'.

Length 15 m; draft 1.3 m.

Type: Pilot. MMSI: 316003484.

Date/timePositionNaut miles runAvg speedWind from/ knotsBaromVisibWave heightAir tempDewpointWater temp
2014-Jul-23 07:31N 54°17' W 130°22'1 1.2
2014-Jul-23 06:33N 54°18' W 130°21'0 0.0
2014-Jul-23 05:33N 54°18' W 130°21'1 0.3
2014-Jul-23 02:33N 54°17' W 130°22'1 0.2
2014-Jul-22 22:33N 54°18' W 130°21'0 0.0
2014-Jul-22 21:33N 54°18' W 130°21'0 0.0
2014-Jul-22 20:33N 54°18' W 130°21'0 0.0
2014-Jul-22 19:33N 54°18' W 130°21'0 0.0
2014-Jul-22 18:33N 54°18' W 130°21'0 0.0
2014-Jul-22 17:33N 54°18' W 130°21'2 2.0
2014-Jul-22 16:33N 54°19' W 130°19'2 2.0
2014-Jul-22 15:33N 54°18' W 130°21'1 0.2
2014-Jul-22 10:32N 54°17' W 130°22'1 1.1
2014-Jul-22 09:33N 54°18' W 130°21'0 0.0
2014-Jul-22 08:33N 54°18' W 130°21'3 2.9
2014-Jul-22 07:33N 54°20' W 130°25'3 1.0
2014-Jul-22 04:33N 54°18' W 130°21'0 0.0
2014-Jul-22 03:33N 54°18' W 130°21'0 0.0
2014-Jul-22 02:33N 54°18' W 130°21'0 0.0
2014-Jul-22 01:33N 54°18' W 130°21'0 0.0
2014-Jul-22 00:33N 54°18' W 130°21'1 0.2
2014-Jul-21 20:16N 54°17' W 130°22'1 1.3
2014-Jul-21 19:33N 54°18' W 130°21'0 0.0
2014-Jul-21 18:33N 54°18' W 130°21'0 0.0
2014-Jul-21 17:33N 54°18' W 130°21'0 0.0
2014-Jul-21 16:33N 54°18' W 130°21'1 0.3
2014-Jul-21 12:25N 54°17' W 130°22'1 1.4
2014-Jul-21 11:34N 54°18' W 130°21'0 0.0
2014-Jul-21 10:33N 54°18' W 130°21'0 0.0
2014-Jul-21 09:33N 54°18' W 130°21'1 0.5
2014-Jul-21 07:26N 54°17' W 130°22'1 1.2
2014-Jul-21 06:33N 54°18' W 130°21'0 0.0
2014-Jul-21 05:33N 54°18' W 130°21'0 0.0
2014-Jul-21 04:33N 54°18' W 130°21'0 0.2
2014-Jul-21 03:33N 54°18' W 130°21'1 0.9
2014-Jul-21 02:33N 54°17' W 130°22'1 0.1
2014-Jul-20 21:34N 54°18' W 130°21'0 0.0
2014-Jul-20 20:33N 54°18' W 130°21'1 0.8
2014-Jul-20 19:06N 54°17' W 130°22'2 4.6
2014-Jul-20 18:33N 54°19' W 130°20'1 1.4
2014-Jul-20 17:33N 54°18' W 130°21'0 0.0
2014-Jul-20 14:33N 54°18' W 130°21'2 2.0
2014-Jul-20 13:33N 54°19' W 130°19'2 2.0
2014-Jul-20 12:33N 54°18' W 130°21'0 0.0
2014-Jul-20 11:33N 54°18' W 130°21'0 0.0
2014-Jul-20 10:33N 54°18' W 130°21'8 2.3
2014-Jul-20 07:11N 54°18' W 130°35'812.6
2014-Jul-20 06:33N 54°18' W 130°21'8 3.9
2014-Jul-20 04:25N 54°19' W 130°35'8 9.6
2014-Jul-20 03:33N 54°18' W 130°21'1 0.5
2014-Jul-20 01:16N 54°17' W 130°22'1 1.7
2014-Jul-20 00:33N 54°18' W 130°21'1 0.4
2014-Jul-19 21:30N 54°16' W 130°22'1 1.3
2014-Jul-19 20:33N 54°18' W 130°21'0 0.0
2014-Jul-19 19:33N 54°18' W 130°21'0 0.0
2014-Jul-19 18:33N 54°18' W 130°21'0 0.0
2014-Jul-19 17:33N 54°18' W 130°21'2 1.8
2014-Jul-19 16:27N 54°19' W 130°19'2 2.3
2014-Jul-19 15:34N 54°18' W 130°21'1 0.3
2014-Jul-19 12:17N 54°17' W 130°22'1 1.3
2014-Jul-19 11:33N 54°18' W 130°21'0 0.0
2014-Jul-19 10:33N 54°18' W 130°21'7 3.1
2014-Jul-19 08:17N 54°18' W 130°33'3 1.5
2014-Jul-19 06:06N 54°15' W 130°35'814.8
2014-Jul-19 05:33N 54°18' W 130°21'0 0.0
2014-Jul-19 04:33N 54°18' W 130°21'1 0.5
2014-Jul-19 02:06N 54°16' W 130°22'1 2.3
2014-Jul-19 01:33N 54°18' W 130°21'0 0.0
2014-Jul-19 00:33N 54°18' W 130°21'0 0.0
2014-Jul-18 23:33N 54°18' W 130°21'0 0.0
2014-Jul-18 22:33N 54°18' W 130°21'0 0.0
2014-Jul-18 21:33N 54°18' W 130°21'0 0.0
2014-Jul-18 20:33N 54°18' W 130°21'0 0.0
2014-Jul-18 19:33N 54°18' W 130°21'0 0.0
2014-Jul-18 18:33N 54°18' W 130°21'0 0.0
2014-Jul-18 17:33N 54°18' W 130°21'2 2.0
2014-Jul-18 16:33N 54°19' W 130°19'0 0.0
2014-Jul-18 15:33N 54°19' W 130°19'0 0.0
2014-Jul-18 14:33N 54°19' W 130°19'0 0.0
2014-Jul-18 13:33N 54°19' W 130°19'2 2.0
2014-Jul-18 12:33N 54°18' W 130°21'0 0.0
2014-Jul-18 11:33N 54°18' W 130°21'0 0.0
2014-Jul-18 10:33N 54°18' W 130°21'0 0.0
2014-Jul-18 09:33N 54°18' W 130°21'0 0.0
2014-Jul-18 08:33N 54°18' W 130°21'0 0.0
2014-Jul-18 07:33N 54°18' W 130°21'0 0.0
2014-Jul-18 06:33N 54°18' W 130°21'0 0.0
2014-Jul-18 05:33N 54°18' W 130°21'0 0.0
2014-Jul-18 04:33N 54°18' W 130°21'0 0.0
2014-Jul-18 03:33N 54°18' W 130°21'0 0.0
2014-Jul-18 02:33N 54°18' W 130°21'0 0.0
2014-Jul-17 23:33N 54°18' W 130°21'0 0.0
2014-Jul-17 22:33N 54°18' W 130°21'0 0.0
2014-Jul-17 21:33N 54°18' W 130°21'0 0.0
2014-Jul-17 20:33N 54°18' W 130°21'0 0.0
2014-Jul-17 19:33N 54°18' W 130°21'0 0.0
2014-Jul-17 18:33N 54°18' W 130°21'1 0.2
2014-Jul-17 15:33N 54°17' W 130°22'1 0.7
2014-Jul-17 14:33N 54°18' W 130°21'0 0.0
2014-Jul-17 13:34N 54°18' W 130°21'0 0.0
2014-Jul-17 12:34N 54°18' W 130°21'0 0.0
2014-Jul-17 11:33N 54°18' W 130°21'0 0.0
2014-Jul-17 10:33N 54°18' W 130°21'0 0.0
2014-Jul-17 04:33N 54°18' W 130°21'0 0.0
2014-Jul-17 03:33N 54°18' W 130°21'0 0.0
2014-Jul-17 02:33N 54°18' W 130°21'0 0.0
2014-Jul-17 01:33N 54°18' W 130°21'0 0.0
2014-Jul-17 00:33N 54°18' W 130°21'2 1.4
2014-Jul-16 23:04N 54°19' W 130°19'2 3.9
2014-Jul-16 22:33N 54°18' W 130°21'0 0.0
2014-Jul-16 21:33N 54°18' W 130°21'0 0.0
2014-Jul-16 20:33N 54°18' W 130°21'0 0.0
2014-Jul-16 19:33N 54°18' W 130°21'0 0.0
2014-Jul-16 18:33N 54°18' W 130°21'0 0.0
2014-Jul-16 17:33N 54°18' W 130°21'0 0.0
2014-Jul-16 16:33N 54°18' W 130°21'0 0.0
2014-Jul-16 15:33N 54°18' W 130°21'0 0.0
2014-Jul-16 14:33N 54°18' W 130°21'0 0.0
2014-Jul-16 13:33N 54°18' W 130°21'0 0.0
2014-Jul-16 12:33N 54°18' W 130°21'0 0.0
2014-Jul-16 11:33N 54°18' W 130°21'0 0.0
2014-Jul-16 10:33N 54°18' W 130°21'0 0.0
2014-Jul-16 09:33N 54°18' W 130°21'0 0.0
2014-Jul-16 08:33N 54°18' W 130°21'0 0.0
2014-Jul-16 07:33N 54°18' W 130°21'0 0.0
2014-Jul-16 06:33N 54°18' W 130°21'0 0.0
2014-Jul-16 05:33N 54°18' W 130°21'0 0.0
2014-Jul-16 04:33N 54°18' W 130°21'0 0.0
2014-Jul-16 03:33N 54°18' W 130°21'0 0.0
2014-Jul-16 02:33N 54°18' W 130°21'0 0.0
2014-Jul-16 01:33N 54°18' W 130°21'0 0.0
2014-Jul-16 00:33N 54°18' W 130°21'0 0.0
2014-Jul-15 23:33N 54°18' W 130°21'0 0.0
2014-Jul-15 22:33N 54°18' W 130°21'0 0.0
2014-Jul-15 21:33N 54°18' W 130°21'0 0.0
2014-Jul-15 20:33N 54°18' W 130°21'0 0.0
2014-Jul-15 19:33N 54°18' W 130°21'0 0.0
2014-Jul-15 18:33N 54°18' W 130°21'0 0.0
2014-Jul-15 17:33N 54°18' W 130°21'0 0.0
2014-Jul-15 16:33N 54°18' W 130°21'0 0.0
2014-Jul-15 15:33N 54°18' W 130°21'0 0.0
2014-Jul-15 14:33N 54°18' W 130°21'0 0.0
2014-Jul-15 13:33N 54°18' W 130°21'1 0.1
2014-Jul-15 08:05N 54°17' W 130°22'0 0.1
2014-Jul-15 05:06N 54°17' W 130°22'1 1.3
2014-Jul-15 04:33N 54°18' W 130°21'0 0.0
2014-Jul-15 03:34N 54°18' W 130°21'1 0.7
2014-Jul-15 02:17N 54°17' W 130°22'1 1.2
2014-Jul-15 01:33N 54°18' W 130°21'0 0.0
2014-Jul-15 00:33N 54°18' W 130°21'0 0.0
2014-Jul-14 23:33N 54°18' W 130°21'0 0.0
2014-Jul-14 22:33N 54°18' W 130°21'1 0.1
2014-Jul-14 15:12N 54°17' W 130°22'1 1.1
2014-Jul-14 14:33N 54°18' W 130°21'2 1.8
2014-Jul-14 13:27N 54°19' W 130°19'2 0.7
2014-Jul-14 10:33N 54°18' W 130°21'0 0.0
2014-Jul-14 09:33N 54°18' W 130°21'0 0.0
2014-Jul-14 08:33N 54°18' W 130°21'1 0.1
2014-Jul-14 04:06N 54°17' W 130°22'1 1.1
2014-Jul-14 03:33N 54°18' W 130°21'1 0.3
2014-Jul-14 00:29N 54°17' W 130°22'1 1.1
2014-Jul-13 23:33N 54°18' W 130°21'0 0.0
2014-Jul-13 22:33N 54°18' W 130°21'0 0.0
2014-Jul-13 21:33N 54°18' W 130°21'2 2.0
2014-Jul-13 20:33N 54°19' W 130°19'1 1.0
2014-Jul-13 19:33N 54°19' W 130°20'1 0.3
2014-Jul-13 15:33N 54°18' W 130°21'7 3.3
2014-Jul-13 13:22N 54°15' W 130°33'7 8.9
2014-Jul-13 12:33N 54°18' W 130°21'0 0.0
2014-Jul-13 11:34N 54°18' W 130°21'0 0.0
2014-Jul-13 10:34N 54°18' W 130°21'0 0.1
2014-Jul-13 09:33N 54°18' W 130°21'  

Dump ship's entire track history